Shatki, Russia
Current Conditions -  °F | °C
As of 7:00 AM on Friday 21 Nov 2014 (Local Time) from UWGG Reporting Station
Haze Haze  
Wind Chill: 21°   Ceiling: 400
Heat Index: 21°   Visibility: 2.2mi
Dew Point: 19°   Wind: 2mph
Humidity: 93%   Direction: NA
Pressure: 30.56"   Gusts: NA
Location:  55.19°N, 44.13°E
Report Text: UWGG 210400Z VRB01MPS 3600 BR OVC004 M06/M07 Q1035 TEMPO 0300FZFG VV003 36090060 RMK QBB120 QFE769
Loading
Personal Weather Stations






























Interactive Weather Map New forecast layout! Learn more

10-Day Weather Forecast

Advertisements
Track Severe Weather on mobile